WIMM/MES METAR and TAF weather

Enter ICAO airport designator
Station Type Date Time Source
WIMM METAR 2022/06/28 09:30 UTC NOAA

WIMM 280930Z 33007KT 9999 SCT018 29/26 Q1005 NOSIG


Station Type Date Time Source
WIMM Decoded METAR 2022/06/28 09:30 UTC NOAA

Medan / Polonia, Indonesia (WIMM) 03-34N 098-41E 25M
Jun 28, 2022 - 05:30 AM EDT / 2022.06.28 0930 UTC
Wind: from the NNW (330 degrees) at 8 MPH (7 KT):0
Visibility: greater than 7 mile(s):0
Sky conditions: partly cloudy
Temperature: 84 F (29 C)
Dew Point: 78 F (26 C)
Relative Humidity: 83%
Pressure (altimeter): 29.68 in. Hg (1005 hPa)
ob: WIMM 280930Z 33007KT 9999 SCT018 29/26 Q1005 NOSIG
cycle: 9

Station Type Date Time Source
WIMM TAF 2022/06/28 06:09 UTC NOAA

TAF WIMM 280500Z 2806/2906 VRB08KT 9000 BKN017
BECMG 2811/2813 5000 HZ FEW016CB SCT018
TEMPO 2813/2817 -TSRA

Example: see airport list